Soaring Guidance
Issued by NWS Reno, NV

Home | Current Version | Previous Version | Text Only | Print | Product List | Glossary On
Versions: 1 2 3 4 5 6 7 8 9 10 11 12 13 14
000
UXUS97 KREV 241353
SRGREV

SOARING FORECAST
NATIONAL WEATHER SERVICE - RENO NV
700 AM PDT TUE MAY 24 2016

THIS SOARING FORECAST IS FOR THE EASTERN SIERRA AND WESTERN NEVADA
WITH SPECIFIC INDICES FOR THE GREATER RENO AREA.

THIS FORECAST IS PREPARED DAILY BY 700 AM AND IS NOT UPDATED.

FOR CURRENT FLIGHT CONDITIONS...FORECASTS...AND ADVISORIES...ACCESS
YOUR LOCAL BRIEFING OUTLET OR FLIGHT SERVICE STATION.

*******************************************************************
FORECASTED LOCAL INDICES FOR RENO:        TODAY     YESTERDAY
FORECASTED MAX TEMP AT RENO (DEG F).....     65          65
FORECASTED TRIGGER TEMPERATURE (DEG F)..     51          50
   EXCEEDED YESTERDAY BY 955 AM PDT
FORECASTED MAXIMUM ALTITUDE (FT MSL)....  15900       14800
FORECASTED SOARING INDEX (FPM)..........    927         774
FORECASTED K-INDEX.........VALID 18Z....     -5          -5
FORECASTED K-INDEX.........VALID 00Z....     -7          -7
FORECASTED LIFTED INDEX....VALID 18Z....     11          11
FORECASTED LIFTED INDEX....VALID 00Z....      8           8

AFTERNOON WINDS ALOFT FORECAST
MSL (FT) WIND/TEMP
9000  3017/+01
10000 3114/-01
12000 3509/-05
14000 1709/-09
16000 1209/-13
18000 0808/-18
24000 9900/-31
30000 3413/-49
34000 0108/-54
39000 2607/-50

SLIDE MOUNTAIN DATA:
     DATE       TIME     TEMP  DEWPT   RH         WIND (MPH)
                        (F)   (F)           | DIR  SPEED GUST
2016-05-24    05:20      28    27     99    | 028   13   15
2016-05-24    05:00      28    27     99    | 026   13   15
2016-05-24    04:50      28    27     99    | 023   12   15
2016-05-24    04:30      28    27     99    | 017   12   16

RENO TAF FORECAST:
KRNO 241121Z 2412/2512 VRB04KT P6SM SCT040 BKN080
     FM241800 29007KT P6SM VCSH SCT040 BKN080
     FM242100 29010G20KT P6SM -SHRA VCTS SCT040 BKN070CB
     FM250000 31010KT P6SM VCSH BKN050 BKN080
     FM250500 VRB03KT P6SM BKN080

CARSON CITY TAF FORECAST:
KCXP 241121Z 2412/2512 VRB03KT P6SM SCT035 BKN060
     FM241800 25006KT P6SM VCSH SCT040 BKN070
     FM242100 26009KT P6SM -SHRA VCTS SCT040 BKN070CB
     FM250000 29007KT P6SM VCSH SCT040 BKN070
     FM250400 VRB03KT P6SM BKN070

OUTLOOK FOR THE RENO-CARSON CITY-MINDEN AREA:
.WEDNESDAY...MOSTLY CLOUDY. ISOLATED SHOWERS IN THE MORNING...
THEN SCATTERED SHOWERS AND ISOLATED THUNDERSTORMS IN THE
AFTERNOON. HIGHS 64 TO 69. NORTHWEST WINDS 10 TO 15 MPH.

SUNRISE AND SUNSET
MAY 24 2016...........SUNRISE   538 AM PDT   SUNSET   815 PM PDT
MAY 25 2016...........SUNRISE   537 AM PDT   SUNSET   816 PM PDT


USA.gov is the U.S. government's official web portal to all federal, state and local government web resources and services.